Time;durP1;ratioP1;P1;durP2;ratioP2;P2;SDS_P1;SDS_P2;PMS_P1;PMS_P2;Temp;Humidity;BMP_temperature;BMP_pressure;BME280_temperature;BME280_humidity;BME280_pressure;Samples;Min_cycle;Max_cycle;Signal;HPM_P1;HPM_P2
2021/10/06 00:02:25;;;;;;;3.57;2.23;;;11.60;1.00;12.00;100161.00;;;;5073856;28;20442;-74
2021/10/06 00:04:53;;;;;;;4.00;2.80;;;11.50;1.00;11.90;100163.00;;;;5073320;28;20494;-73
2021/10/06 00:07:21;;;;;;;5.70;2.93;;;11.40;1.00;11.90;100149.00;;;;5075484;28;20452;-73
2021/10/06 00:09:51;;;;;;;7.03;2.33;;;11.40;1.00;11.90;100170.00;;;;5078026;28;20468;-73
2021/10/06 00:12:19;;;;;;;4.83;2.23;;;11.40;1.00;11.80;100169.00;;;;5070788;28;20448;-73
2021/10/06 00:14:48;;;;;;;5.00;2.00;;;11.30;1.00;11.80;100147.00;;;;5055701;28;20490;-73
2021/10/06 00:17:23;;;;;;;3.60;2.27;;;11.40;1.00;11.80;100183.00;;;;5054055;28;22498;-73
2021/10/06 00:19:52;;;;;;;2.53;1.90;;;11.30;1.00;11.70;100196.00;;;;5052549;28;20452;-73
2021/10/06 00:22:21;;;;;;;10.33;2.70;;;11.30;1.00;11.80;100190.00;;;;5048377;28;20451;-74
2021/10/06 00:24:51;;;;;;;4.33;2.37;;;11.30;1.00;11.80;100172.00;;;;5061775;28;20478;-73
2021/10/06 00:27:19;;;;;;;2.87;2.07;;;11.30;1.00;11.80;100188.00;;;;5044228;28;20961;-72
2021/10/06 00:29:48;;;;;;;4.97;2.03;;;11.30;1.00;11.80;100200.00;;;;5033508;28;20465;-73
2021/10/06 00:32:16;;;;;;;5.13;1.97;;;11.30;1.00;11.80;100187.00;;;;5047485;28;20455;-73
2021/10/06 00:34:44;;;;;;;4.53;1.67;;;11.30;1.00;11.80;100195.00;;;;5050764;28;20472;-73
2021/10/06 00:37:13;;;;;;;4.87;1.70;;;11.30;1.00;11.80;100198.00;;;;5053348;28;20488;-74
2021/10/06 00:39:41;;;;;;;4.27;1.67;;;11.30;1.00;11.80;100196.00;;;;5052155;28;20827;-72
2021/10/06 00:42:11;;;;;;;3.80;1.60;;;11.30;1.00;11.80;100198.00;;;;5053456;28;20483;-73
2021/10/06 00:44:40;;;;;;;3.90;1.60;;;11.30;1.00;11.90;100196.00;;;;5053188;28;20471;-74
2021/10/06 00:47:13;;;;;;;3.37;2.03;;;11.30;1.00;11.90;100195.00;;;;5050781;28;20496;-74
2021/10/06 00:49:42;;;;;;;3.60;1.80;;;11.40;1.00;11.80;100203.00;;;;5035631;28;20431;-74
2021/10/06 00:52:12;;;;;;;4.20;1.70;;;11.40;1.00;11.80;100184.00;;;;5053331;28;20624;-74
2021/10/06 00:54:41;;;;;;;3.50;1.50;;;11.30;1.00;11.70;100197.00;;;;5054048;28;20506;-76
2021/10/06 00:57:12;;;;;;;5.70;1.73;;;11.30;1.00;11.70;100215.00;;;;5074336;28;20474;-75
2021/10/06 00:59:40;;;;;;;2.37;1.47;;;11.30;1.00;11.70;100211.00;;;;5040224;28;20527;-75
2021/10/06 01:02:09;;;;;;;5.23;2.20;;;11.30;1.00;11.70;100180.00;;;;5053413;28;20444;-76
2021/10/06 01:04:39;;;;;;;6.03;1.87;;;11.30;1.00;11.50;100187.00;;;;5047232;28;20479;-72
2021/10/06 01:07:07;;;;;;;6.20;2.23;;;11.20;1.00;11.60;100212.00;;;;5059443;28;20539;-75
2021/10/06 01:09:38;;;;;;;3.73;1.60;;;11.20;1.00;11.60;100190.00;;;;5059883;28;20448;-75
2021/10/06 01:12:06;;;;;;;2.97;1.70;;;11.20;1.00;11.60;100207.00;;;;5052915;28;20462;-71
2021/10/06 01:14:37;;;;;;;3.87;1.83;;;11.20;1.00;11.70;100234.00;;;;5032041;28;20968;-73
2021/10/06 01:17:06;;;;;;;4.63;2.20;;;11.20;1.00;11.60;100237.00;;;;5035494;28;20467;-73
2021/10/06 01:19:35;;;;;;;2.77;1.43;;;11.20;1.00;11.70;100088.00;;;;5053798;28;20444;-73
2021/10/06 01:22:04;;;;;;;3.40;1.80;;;11.30;1.00;11.80;100219.00;;;;5054219;28;20949;-73
2021/10/06 01:24:33;;;;;;;2.67;1.67;;;11.30;1.00;11.90;100240.00;;;;5062614;28;21019;-73
2021/10/06 01:27:02;;;;;;;4.00;1.33;;;11.30;1.00;12.00;100250.00;;;;5057890;28;20964;-73
2021/10/06 01:29:30;;;;;;;3.10;1.53;;;11.40;1.00;12.10;100247.00;;;;5052843;28;20961;-73
2021/10/06 01:31:59;;;;;;;4.43;1.60;;;11.50;1.00;12.10;100240.00;;;;5053401;28;20447;-73
2021/10/06 01:34:28;;;;;;;4.07;1.80;;;11.60;1.00;12.20;100236.00;;;;5034966;28;20448;-72
2021/10/06 01:36:56;;;;;;;7.33;1.73;;;11.60;1.00;12.20;100256.00;;;;5052394;28;20471;-73
2021/10/06 01:39:25;;;;;;;3.33;1.90;;;11.60;1.00;12.10;100251.00;;;;5053133;28;20450;-73
2021/10/06 01:41:54;;;;;;;3.73;1.70;;;11.60;1.00;12.00;100255.00;;;;5053289;28;20448;-73
2021/10/06 01:44:22;;;;;;;4.43;1.80;;;11.50;1.00;11.90;100258.00;;;;5051044;28;20465;-73
2021/10/06 01:46:52;;;;;;;4.90;1.80;;;11.50;1.00;11.90;100261.00;;;;5042342;28;20452;-74
2021/10/06 01:49:21;;;;;;;6.00;2.10;;;11.40;1.00;11.80;100264.00;;;;5052844;28;20466;-74
2021/10/06 01:51:52;;;;;;;7.13;1.90;;;11.30;1.00;11.70;100262.00;;;;5053057;28;20457;-73
2021/10/06 01:54:20;;;;;;;6.73;1.90;;;11.20;1.00;11.70;100259.00;;;;5052855;28;20495;-73
2021/10/06 01:56:50;;;;;;;3.27;2.03;;;11.30;1.00;11.40;100265.00;;;;5047511;28;20475;-73
2021/10/06 01:59:18;;;;;;;5.10;1.97;;;11.20;1.00;11.60;100273.00;;;;5051610;28;20889;-73
2021/10/06 02:01:47;;;;;;;3.17;1.80;;;11.20;1.00;11.60;100268.00;;;;5035642;28;20471;-73
2021/10/06 02:04:15;;;;;;;6.20;2.33;;;11.10;1.00;11.60;100283.00;;;;5053211;28;20531;-73
2021/10/06 02:06:43;;;;;;;5.40;2.47;;;11.20;1.00;11.70;100288.00;;;;5053061;28;20432;-74
2021/10/06 02:09:11;;;;;;;3.20;1.87;;;11.30;1.00;11.80;100285.00;;;;5034380;28;20459;-74
2021/10/06 02:11:40;;;;;;;3.57;1.83;;;11.30;1.00;12.00;100278.00;;;;5052485;28;20462;-73
2021/10/06 02:14:10;;;;;;;5.10;1.73;;;11.40;1.00;12.10;100283.00;;;;5052981;28;20451;-76
2021/10/06 02:16:38;;;;;;;7.20;2.00;;;11.50;1.00;12.20;100284.00;;;;5043819;28;20460;-75
2021/10/06 02:19:07;;;;;;;3.53;1.90;;;11.50;1.00;12.20;100287.00;;;;5051601;28;20444;-74
2021/10/06 02:21:35;;;;;;;3.70;1.90;;;11.60;1.00;12.20;100284.00;;;;5052366;28;20440;-74
2021/10/06 02:24:06;;;;;;;5.83;1.70;;;11.60;1.00;12.20;100283.00;;;;5050666;28;20475;-74
2021/10/06 02:26:34;;;;;;;2.60;1.73;;;11.60;1.00;12.30;100230.00;;;;5065050;28;21045;-74
2021/10/06 02:29:03;;;;;;;5.40;1.50;;;11.60;1.00;11.80;100140.00;;;;5051674;28;20460;-75
2021/10/06 02:31:33;;;;;;;6.63;2.40;;;11.70;1.00;12.30;100257.00;;;;5052763;28;20432;-75
2021/10/06 02:34:01;;;;;;;3.37;2.20;;;11.70;1.00;12.30;100286.00;;;;5067541;28;20463;-74
2021/10/06 02:36:29;;;;;;;3.47;1.80;;;11.70;1.00;12.30;100281.00;;;;5072275;28;20479;-74
2021/10/06 02:38:58;;;;;;;4.47;1.67;;;11.70;1.00;12.30;100287.00;;;;5051317;28;20530;-75
2021/10/06 02:41:26;;;;;;;5.40;2.00;;;11.70;1.00;12.20;100289.00;;;;5052142;28;20444;-74
2021/10/06 02:43:54;;;;;;;4.27;1.70;;;11.70;1.00;12.20;100288.00;;;;5051623;28;20972;-74
2021/10/06 02:46:23;;;;;;;5.97;1.80;;;11.60;1.00;12.20;100288.00;;;;5050748;28;20473;-74
2021/10/06 02:48:52;;;;;;;4.70;1.80;;;11.60;1.00;12.20;100294.00;;;;5051533;28;20470;-74
2021/10/06 02:51:21;;;;;;;5.70;2.30;;;11.60;1.00;12.20;100296.00;;;;5056831;28;20458;-74
2021/10/06 02:53:49;;;;;;;7.53;2.40;;;11.60;1.00;12.30;100297.00;;;;5049224;28;20987;-72
2021/10/06 02:56:17;;;;;;;6.13;1.93;;;11.70;1.00;12.30;100313.00;;;;5052043;28;20844;-73
2021/10/06 02:58:46;;;;;;;3.20;1.77;;;11.70;1.00;12.30;100287.00;;;;5049237;28;20481;-73
2021/10/06 03:01:14;;;;;;;5.77;2.50;;;11.70;1.00;12.30;100303.00;;;;5048948;28;20467;-74
2021/10/06 03:03:42;;;;;;;4.40;1.83;;;11.70;1.00;12.30;100305.00;;;;5050191;28;20463;-74
2021/10/06 03:06:12;;;;;;;3.80;2.33;;;11.70;1.00;12.30;100314.00;;;;5050889;28;20766;-75
2021/10/06 03:08:40;;;;;;;6.03;2.20;;;11.70;1.00;12.20;100319.00;;;;5050254;28;20456;-75
2021/10/06 03:11:08;;;;;;;4.43;1.80;;;11.60;1.00;12.20;100318.00;;;;5052051;28;20466;-75
2021/10/06 03:13:37;;;;;;;6.20;2.20;;;11.60;1.00;12.10;100313.00;;;;5059709;28;20460;-74
2021/10/06 03:16:05;;;;;;;5.33;2.63;;;11.50;1.00;12.10;100320.00;;;;5072967;28;20503;-74
2021/10/06 03:18:33;;;;;;;5.43;2.63;;;11.60;1.00;12.00;100326.00;;;;5055285;28;20456;-73
2021/10/06 03:21:02;;;;;;;5.20;2.10;;;11.40;1.00;12.00;100318.00;;;;5053399;28;20810;-75
2021/10/06 03:23:32;;;;;;;2.80;1.90;;;11.40;1.00;11.90;100325.00;;;;5032051;28;20452;-73
2021/10/06 03:26:00;;;;;;;6.30;2.93;;;11.30;1.00;11.80;100332.00;;;;5049994;28;20479;-73
2021/10/06 03:28:28;;;;;;;5.13;2.83;;;11.30;1.00;11.80;100302.00;;;;5032969;28;20472;-73
2021/10/06 03:30:57;;;;;;;5.27;2.80;;;11.30;1.00;11.70;100317.00;;;;5051422;28;20563;-75
2021/10/06 03:33:25;;;;;;;3.40;2.37;;;11.20;1.00;11.60;100332.00;;;;5040878;28;20470;-74
2021/10/06 03:35:54;;;;;;;5.17;2.70;;;11.10;1.00;11.60;100330.00;;;;5065899;28;20479;-74
2021/10/06 03:38:22;;;;;;;6.30;2.50;;;11.10;1.00;11.50;100335.00;;;;5067795;28;20463;-73
2021/10/06 03:40:52;;;;;;;5.67;2.27;;;11.10;1.00;11.50;100320.00;;;;5053816;28;20448;-74
2021/10/06 03:43:20;;;;;;;7.30;2.57;;;11.10;1.00;11.50;100334.00;;;;5048616;28;20517;-74
2021/10/06 03:45:48;;;;;;;6.13;2.70;;;11.10;1.00;11.50;100310.00;;;;5046869;28;20479;-75
2021/10/06 03:48:17;;;;;;;5.70;2.67;;;11.20;1.00;11.50;100343.00;;;;5045310;28;20465;-74
2021/10/06 03:50:45;;;;;;;4.93;2.57;;;11.10;1.00;11.60;100347.00;;;;5047161;28;20539;-74
2021/10/06 03:53:14;;;;;;;7.90;2.93;;;11.10;1.00;11.60;100340.00;;;;5032925;28;20460;-74
2021/10/06 03:55:42;;;;;;;2.77;2.13;;;11.10;1.00;11.60;100367.00;;;;5051676;28;20841;-74
2021/10/06 03:58:12;;;;;;;7.13;3.10;;;11.10;1.00;11.60;100366.00;;;;5048168;28;20546;-73
2021/10/06 04:00:40;;;;;;;4.23;2.57;;;11.10;1.00;11.50;100373.00;;;;5049404;28;20475;-73
2021/10/06 04:03:12;;;;;;;4.67;2.60;;;11.10;1.00;11.40;100370.00;;;;5043584;28;20448;-74
2021/10/06 04:05:41;;;;;;;6.63;2.93;;;11.10;1.00;11.40;100375.00;;;;5055625;28;20526;-74
2021/10/06 04:08:10;;;;;;;10.07;2.90;;;11.00;1.00;11.40;100385.00;;;;5061709;28;20455;-73
2021/10/06 04:10:38;;;;;;;4.57;2.93;;;10.90;1.00;11.30;100386.00;;;;5064909;28;20837;-75
2021/10/06 04:13:06;;;;;;;7.87;3.43;;;10.90;1.00;11.30;100376.00;;;;5079000;28;20470;-74
2021/10/06 04:15:36;;;;;;;7.53;3.50;;;10.90;1.00;11.30;100366.00;;;;5061741;28;20563;-73
2021/10/06 04:18:06;;;;;;;7.03;3.10;;;10.80;1.00;11.30;100377.00;;;;5055714;28;20484;-75
2021/10/06 04:20:34;;;;;;;6.83;3.00;;;10.80;1.00;11.40;100387.00;;;;5050709;28;20444;-74
2021/10/06 04:23:03;;;;;;;6.77;3.00;;;10.90;1.00;11.50;100394.00;;;;5053123;28;20472;-74
2021/10/06 04:25:32;;;;;;;8.50;3.60;;;11.00;1.00;11.60;100377.00;;;;5048147;28;20483;-73
2021/10/06 04:28:00;;;;;;;5.90;3.40;;;11.00;1.00;11.60;100390.00;;;;5034481;28;20543;-73
2021/10/06 04:30:28;;;;;;;6.17;3.93;;;11.00;1.00;11.60;100395.00;;;;5049857;28;20475;-74
2021/10/06 04:32:58;;;;;;;6.50;3.33;;;11.00;1.00;11.70;100359.00;;;;5052796;28;20471;-74
2021/10/06 04:35:27;;;;;;;8.53;3.93;;;11.10;1.00;11.70;100403.00;;;;5052861;28;20996;-74
2021/10/06 04:37:56;;;;;;;6.83;4.37;;;11.10;1.00;11.60;100394.00;;;;5052806;28;20976;-74
2021/10/06 04:40:24;;;;;;;6.23;3.83;;;11.00;1.00;11.60;100404.00;;;;5049566;28;20455;-73
2021/10/06 04:42:53;;;;;;;7.00;3.57;;;11.00;1.00;11.60;100405.00;;;;5052653;28;20543;-74
2021/10/06 04:45:22;;;;;;;6.10;3.30;;;11.00;1.00;11.60;100409.00;;;;5050234;28;20472;-74
2021/10/06 04:47:50;;;;;;;8.07;3.43;;;11.00;1.00;11.60;100389.00;;;;5051914;28;20462;-74
2021/10/06 04:50:22;;;;;;;8.60;3.83;;;11.00;1.00;11.60;100406.00;;;;5051852;28;20830;-74
2021/10/06 04:52:51;;;;;;;6.00;3.60;;;11.10;1.00;11.70;100404.00;;;;5051325;28;20459;-74
2021/10/06 04:55:19;;;;;;;6.83;3.90;;;11.10;1.00;11.70;100407.00;;;;5042761;28;20487;-75
2021/10/06 04:57:47;;;;;;;8.53;3.87;;;11.10;1.00;11.70;100401.00;;;;5051821;28;20482;-73
2021/10/06 05:00:16;;;;;;;8.07;3.50;;;11.20;1.00;11.70;100403.00;;;;5051682;28;20452;-74
2021/10/06 05:02:44;;;;;;;7.27;3.67;;;11.20;1.00;11.80;100404.00;;;;5048469;28;20439;-75
2021/10/06 05:05:13;;;;;;;9.47;3.80;;;11.20;1.00;11.80;100396.00;;;;5057100;28;20472;-75
2021/10/06 05:07:42;;;;;;;6.67;3.53;;;11.20;1.00;11.80;100399.00;;;;5039928;28;20454;-73
2021/10/06 05:10:11;;;;;;;9.53;3.70;;;11.20;1.00;11.80;100390.00;;;;5057037;28;20499;-74
2021/10/06 05:12:39;;;;;;;7.90;3.87;;;11.20;1.00;11.80;100422.00;;;;5041620;28;20431;-73
2021/10/06 05:15:09;;;;;;;8.83;3.53;;;11.20;1.00;11.90;100405.00;;;;5057866;28;20491;-73
2021/10/06 05:17:37;;;;;;;9.53;3.93;;;11.20;1.00;11.80;100367.00;;;;5057829;28;20447;-72
2021/10/06 05:20:07;;;;;;;7.50;3.97;;;11.20;1.00;11.80;100370.00;;;;5059176;28;20501;-72
2021/10/06 05:22:35;;;;;;;8.73;3.40;;;11.20;1.00;11.80;100401.00;;;;5057916;28;20479;-73
2021/10/06 05:25:06;;;;;;;7.03;3.30;;;11.10;1.00;11.70;100394.00;;;;5055489;28;20471;-74
2021/10/06 05:27:34;;;;;;;7.57;3.37;;;11.20;1.00;11.70;100401.00;;;;5049555;28;20459;-74
2021/10/06 05:30:06;;;;;;;11.63;3.27;;;11.20;1.00;11.70;100398.00;;;;5053369;28;20448;-74
2021/10/06 05:32:34;;;;;;;11.57;3.80;;;11.20;1.00;11.70;100407.00;;;;5048500;28;20474;-73
2021/10/06 05:35:03;;;;;;;7.57;3.43;;;11.10;1.00;11.70;100421.00;;;;5054003;28;20476;-74
2021/10/06 05:37:32;;;;;;;8.90;3.90;;;11.10;1.00;11.70;100398.00;;;;5036839;28;20963;-73
2021/10/06 05:40:00;;;;;;;8.17;3.10;;;11.10;1.00;11.70;100423.00;;;;5051127;28;20936;-75
2021/10/06 05:42:33;;;;;;;3.57;2.70;;;11.10;1.00;11.70;100409.00;;;;5047856;28;20448;-74
2021/10/06 05:45:02;;;;;;;11.60;3.50;;;11.20;1.00;11.80;100425.00;;;;5051524;28;20572;-75
2021/10/06 05:47:30;;;;;;;15.00;4.03;;;11.20;1.00;11.80;100432.00;;;;5051344;28;20538;-75
2021/10/06 05:50:00;;;;;;;4.90;3.10;;;11.20;1.00;11.90;100431.00;;;;5053615;28;20522;-74
2021/10/06 05:52:28;;;;;;;10.57;3.23;;;11.30;1.00;11.90;100426.00;;;;5052329;28;20482;-74
2021/10/06 05:54:57;;;;;;;6.40;3.40;;;11.30;1.00;11.90;100434.00;;;;5030164;28;20904;-74
2021/10/06 05:57:25;;;;;;;12.53;3.70;;;11.30;1.00;12.00;100432.00;;;;5034195;28;20446;-74
2021/10/06 05:59:55;;;;;;;9.27;3.47;;;11.40;1.00;12.00;100390.00;;;;5036632;28;20479;-72
2021/10/06 06:02:23;;;;;;;9.07;3.10;;;11.40;1.00;12.00;100418.00;;;;5045479;28;20476;-75
2021/10/06 06:04:51;;;;;;;8.20;3.30;;;11.40;1.00;12.00;100429.00;;;;5052535;28;20479;-74
2021/10/06 06:07:20;;;;;;;6.53;2.70;;;11.40;1.00;12.00;100413.00;;;;5051902;28;20482;-75
2021/10/06 06:09:48;;;;;;;4.83;2.33;;;11.40;1.00;11.90;100440.00;;;;5052443;28;20530;-75
2021/10/06 06:12:16;;;;;;;7.43;3.30;;;11.40;1.00;11.60;100474.00;;;;5051465;28;20459;-74
2021/10/06 06:14:45;;;;;;;5.20;2.10;;;11.50;1.00;12.10;100438.00;;;;5050333;28;20587;-75
2021/10/06 06:17:15;;;;;;;8.57;2.70;;;11.60;1.00;12.20;100433.00;;;;5052371;28;20462;-74
2021/10/06 06:19:43;;;;;;;9.10;3.00;;;11.60;1.00;12.20;100460.00;;;;5051360;28;20892;-73
2021/10/06 06:22:11;;;;;;;6.90;2.80;;;11.60;1.00;12.30;100411.00;;;;5051081;28;20460;-75
2021/10/06 06:24:40;;;;;;;7.17;2.57;;;11.70;1.00;12.40;100453.00;;;;5051608;28;20487;-75
2021/10/06 06:27:08;;;;;;;4.73;2.10;;;11.80;1.00;12.40;100463.00;;;;5052017;28;20514;-75
2021/10/06 06:29:37;;;;;;;5.17;2.33;;;11.80;1.00;12.40;100475.00;;;;5048307;28;20460;-75
2021/10/06 06:32:06;;;;;;;6.80;2.13;;;11.80;1.00;12.40;100461.00;;;;5049139;28;20827;-78
2021/10/06 06:34:35;;;;;;;7.67;2.40;;;11.80;1.00;12.00;100455.00;;;;5050816;28;20510;-77
2021/10/06 06:37:04;;;;;;;8.10;2.43;;;11.80;1.00;12.50;100457.00;;;;5054091;28;20436;-77
2021/10/06 06:39:32;;;;;;;4.03;2.20;;;11.80;1.00;12.60;100457.00;;;;5069329;28;20574;-78
2021/10/06 06:42:01;;;;;;;5.77;2.57;;;11.90;1.00;12.90;100455.00;;;;5054409;28;20483;-77
2021/10/06 06:44:30;;;;;;;4.70;1.87;;;12.20;1.00;13.20;100448.00;;;;5034251;28;20487;-78
2021/10/06 06:46:59;;;;;;;3.80;1.97;;;12.50;1.00;13.40;100459.00;;;;5048368;28;20805;-76
2021/10/06 06:49:27;;;;;;;6.37;2.47;;;12.80;1.00;13.40;100459.00;;;;5091750;28;20443;-77
2021/10/06 06:51:59;;;;;;;7.80;2.40;;;12.70;1.00;13.30;100470.00;;;;5067306;28;20515;-77
2021/10/06 06:54:28;;;;;;;5.10;2.47;;;12.60;1.00;13.30;100460.00;;;;5062778;28;20452;-77
2021/10/06 06:56:56;;;;;;;5.03;2.30;;;12.70;1.00;13.30;100454.00;;;;5040989;28;21005;-76
2021/10/06 06:59:24;;;;;;;6.00;2.60;;;12.70;1.00;13.30;100443.00;;;;5038142;28;20484;-76
2021/10/06 07:01:56;;;;;;;8.73;2.87;;;12.70;1.00;13.30;100473.00;;;;5054595;28;20853;-76
2021/10/06 07:04:25;;;;;;;6.17;2.63;;;12.80;1.00;13.30;100479.00;;;;5035535;28;20460;-78
2021/10/06 07:06:55;;;;;;;5.57;2.20;;;12.80;1.00;13.40;100487.00;;;;5039981;28;20879;-77
2021/10/06 07:09:25;;;;;;;7.37;2.93;;;12.80;1.00;13.50;100435.00;;;;5037652;28;20458;-77
2021/10/06 07:11:54;;;;;;;8.50;2.53;;;12.80;1.00;13.50;100489.00;;;;5052630;28;20455;-78
2021/10/06 07:14:23;;;;;;;5.00;1.90;;;12.90;1.00;13.50;100473.00;;;;5050153;28;20458;-76
2021/10/06 07:16:51;;;;;;;7.80;2.47;;;12.90;1.00;13.50;100488.00;;;;5054873;28;20444;-76
2021/10/06 07:19:19;;;;;;;7.70;2.53;;;12.90;1.00;13.50;100496.00;;;;5055552;28;20534;-77
2021/10/06 07:21:48;;;;;;;7.07;2.50;;;12.90;1.00;13.60;100489.00;;;;5071915;28;20435;-76
2021/10/06 07:24:17;;;;;;;7.23;2.60;;;13.00;1.00;13.70;100493.00;;;;5073419;28;20443;-78
2021/10/06 07:26:46;;;;;;;6.27;2.63;;;13.00;1.00;13.70;100498.00;;;;5057352;28;20459;-77
2021/10/06 07:29:15;;;;;;;7.40;2.70;;;13.10;1.00;13.70;100505.00;;;;5059186;28;20478;-77
2021/10/06 07:31:44;;;;;;;5.10;2.17;;;13.10;1.00;13.70;100509.00;;;;5058617;28;20535;-77
2021/10/06 07:34:12;;;;;;;12.00;2.60;;;13.10;1.00;13.60;100492.00;;;;5060753;28;20932;-76
2021/10/06 07:36:40;;;;;;;9.73;2.93;;;13.00;1.00;13.60;100520.00;;;;5059651;28;20839;-78
2021/10/06 07:39:09;;;;;;;6.80;2.50;;;13.00;1.00;13.60;100537.00;;;;5062160;28;20571;-75
2021/10/06 07:41:39;;;;;;;4.67;2.63;;;13.00;1.00;13.50;100537.00;;;;5061533;28;20494;-76
2021/10/06 07:44:08;;;;;;;6.10;2.67;;;12.90;1.00;13.60;100538.00;;;;5059606;28;20443;-76
2021/10/06 07:46:37;;;;;;;7.00;2.30;;;13.00;1.00;13.70;100538.00;;;;5041287;28;20468;-77
2021/10/06 07:49:05;;;;;;;7.63;2.60;;;13.10;1.00;13.80;100540.00;;;;5060992;28;20440;-77
2021/10/06 07:51:34;;;;;;;6.00;2.30;;;13.20;1.00;13.80;100540.00;;;;5062778;28;20451;-76
2021/10/06 07:54:05;;;;;;;5.83;2.30;;;13.20;1.00;13.80;100540.00;;;;5060636;28;20452;-75
2021/10/06 07:56:34;;;;;;;6.40;2.47;;;13.10;1.00;13.80;100540.00;;;;5026877;28;20567;-76
2021/10/06 07:59:03;;;;;;;7.60;2.47;;;13.10;1.00;13.80;100561.00;;;;5061330;28;20546;-76
2021/10/06 08:01:33;;;;;;;9.50;3.00;;;13.10;1.00;14.00;100554.00;;;;5042278;28;20440;-77
2021/10/06 08:04:22;;;;;;;5.00;2.33;;;13.20;1.00;13.90;100544.00;;;;5060542;28;20458;-76
2021/10/06 08:06:50;;;;;;;8.07;2.70;;;13.30;1.00;13.90;100544.00;;;;5057195;28;20490;-77
2021/10/06 08:09:19;;;;;;;5.50;2.43;;;13.30;1.00;14.00;100545.00;;;;5038672;28;20486;-76
2021/10/06 08:11:49;;;;;;;5.57;1.80;;;13.40;1.00;14.00;100556.00;;;;5040609;28;20460;-78
2021/10/06 08:14:17;;;;;;;5.27;2.30;;;13.40;1.00;14.10;100540.00;;;;5051950;28;20548;-77
2021/10/06 08:16:47;;;;;;;4.27;2.17;;;13.50;1.00;14.10;100555.00;;;;5037197;22;20497;-77
2021/10/06 08:19:15;;;;;;;3.33;1.77;;;13.50;1.00;14.10;100552.00;;;;5021029;28;20468;-76
2021/10/06 08:21:45;;;;;;;5.03;2.17;;;13.60;1.00;14.20;100560.00;;;;5002957;28;20457;-75
2021/10/06 08:24:13;;;;;;;7.90;2.10;;;13.70;1.00;14.40;100561.00;;;;5007936;28;20546;-77
2021/10/06 08:26:42;;;;;;;8.07;2.90;;;13.80;1.00;14.20;100556.00;;;;5039513;28;20861;-76
2021/10/06 08:29:10;;;;;;;5.10;1.97;;;13.80;1.00;14.30;100568.00;;;;5038563;28;21199;-76
2021/10/06 08:31:39;;;;;;;5.90;2.43;;;13.80;1.00;14.30;100566.00;;;;5032356;28;20457;-76
2021/10/06 08:34:08;;;;;;;4.80;1.90;;;13.90;1.00;14.30;100554.00;;;;5034417;28;20460;-78
2021/10/06 08:36:38;;;;;;;6.17;3.00;;;13.90;1.00;14.40;100575.00;;;;5040699;28;20575;-76
2021/10/06 08:39:08;;;;;;;4.80;2.30;;;14.00;1.00;14.40;100557.00;;;;5029684;28;20477;-76
2021/10/06 08:41:37;;;;;;;4.97;1.90;;;14.10;1.00;14.40;100551.00;;;;5035299;28;22367;-76
2021/10/06 08:44:06;;;;;;;4.60;1.70;;;14.10;1.00;14.60;100579.00;;;;5029213;28;20488;-76
2021/10/06 08:46:35;;;;;;;7.13;2.40;;;14.10;1.00;14.50;100580.00;;;;5034632;28;20487;-76
2021/10/06 08:49:06;;;;;;;6.90;2.10;;;14.20;1.00;14.50;100569.00;;;;5036248;28;20488;-77
2021/10/06 08:51:35;;;;;;;3.70;1.80;;;14.30;1.00;14.70;100591.00;;;;5045936;28;20425;-76
2021/10/06 08:54:04;;;;;;;4.50;2.30;;;14.30;1.00;14.80;100575.00;;;;5042297;28;20456;-77
2021/10/06 08:56:32;;;;;;;4.10;1.70;;;14.40;1.00;14.90;100562.00;;;;5045350;28;20460;-77
2021/10/06 08:59:01;;;;;;;5.03;1.70;;;14.60;1.00;14.90;100567.00;;;;5018895;28;20476;-77
2021/10/06 09:01:31;;;;;;;5.27;2.00;;;14.50;1.00;15.00;100567.00;;;;5021648;28;20836;-76
2021/10/06 09:04:02;;;;;;;5.70;1.97;;;14.70;1.00;15.10;100574.00;;;;5018446;28;20446;-76
2021/10/06 09:06:36;;;;;;;3.37;1.67;;;14.80;1.00;15.10;100567.00;;;;5028689;28;20461;-76
2021/10/06 09:09:17;;;;;;;2.63;1.40;;;14.80;1.00;14.90;100566.00;;;;5051945;28;20458;-76
2021/10/06 09:11:48;;;;;;;7.27;2.20;;;14.70;1.00;15.20;100580.00;;;;5054683;28;20436;-77
2021/10/06 09:14:17;;;;;;;4.57;1.53;;;14.80;1.00;15.30;100576.00;;;;5056197;28;20420;-77
2021/10/06 09:16:48;;;;;;;6.10;1.40;;;15.00;1.00;15.30;100567.00;;;;5057747;28;20468;-77
2021/10/06 09:19:39;;;;;;;3.30;1.83;;;15.20;1.00;15.40;100573.00;;;;5054748;28;20818;-77
2021/10/06 09:22:16;;;;;;;5.03;2.10;;;15.10;1.00;16.10;100582.00;;;;5056127;28;20447;-77
2021/10/06 09:24:55;;;;;;;7.47;2.03;;;15.50;1.00;16.40;100569.00;;;;5056774;28;20454;-78
2021/10/06 09:27:26;;;;;;;4.07;2.07;;;15.80;1.00;16.60;100559.00;;;;5057181;28;20440;-78
2021/10/06 09:29:58;;;;;;;2.80;1.20;;;16.20;1.00;16.40;100582.00;;;;5056430;28;20446;-78
2021/10/06 09:32:30;;;;;;;3.40;1.40;;;16.10;1.00;16.50;100551.00;;;;5058783;28;20448;-77
2021/10/06 09:35:09;;;;;;;4.00;1.60;;;16.30;1.00;16.80;100595.00;;;;5038994;28;20467;-78
2021/10/06 09:37:41;;;;;;;3.80;1.70;;;16.40;1.00;16.90;100588.00;;;;5057064;28;20447;-78
2021/10/06 09:40:13;;;;;;;4.63;1.67;;;16.50;1.00;16.60;100571.00;;;;5056582;28;20926;-77
2021/10/06 09:42:47;;;;;;;5.33;2.40;;;16.40;1.00;16.90;100581.00;;;;5039175;28;20511;-78
2021/10/06 09:45:26;;;;;;;4.20;1.77;;;16.40;1.00;16.70;100592.00;;;;5044652;28;20468;-78
2021/10/06 09:48:08;;;;;;;4.33;1.40;;;16.50;1.00;16.10;100601.00;;;;5045856;28;20455;-77
2021/10/06 09:50:43;;;;;;;4.67;1.70;;;15.90;1.00;15.90;100587.00;;;;5047644;28;20890;-76
2021/10/06 09:53:17;;;;;;;7.77;2.20;;;15.50;1.00;16.20;100578.00;;;;5058337;28;20895;-77
2021/10/06 09:55:47;;;;;;;4.40;1.60;;;15.60;1.00;16.20;100597.00;;;;5041201;28;20471;-79
2021/10/06 09:58:18;;;;;;;5.63;1.83;;;15.70;1.00;16.40;100575.00;;;;5063878;28;20459;-77
2021/10/06 10:00:50;;;;;;;3.63;1.60;;;15.80;1.00;16.70;100586.00;;;;5071653;28;20555;-78
2021/10/06 10:03:20;;;;;;;5.33;1.60;;;15.90;1.00;16.70;100581.00;;;;5072798;28;20436;-79
2021/10/06 10:05:49;;;;;;;3.20;1.60;;;16.10;1.00;16.40;100572.00;;;;5056917;28;20496;-78
2021/10/06 10:08:20;;;;;;;4.10;1.60;;;16.00;1.00;16.40;100559.00;;;;5059338;28;20460;-78
2021/10/06 10:10:51;;;;;;;2.30;1.00;;;15.90;1.00;16.80;100566.00;;;;5060830;28;20456;-77
2021/10/06 10:13:23;;;;;;;5.17;1.60;;;16.20;1.00;17.00;100572.00;;;;5056342;28;20561;-77
2021/10/06 10:15:52;;;;;;;2.73;1.20;;;16.50;1.00;17.20;100580.00;;;;5043329;28;21058;-78
2021/10/06 10:18:29;;;;;;;4.63;1.70;;;16.70;1.00;17.20;100586.00;;;;5134750;27;20548;-76
2021/10/06 10:20:57;;;;;;;5.83;1.83;;;16.60;1.00;17.40;100579.00;;;;5105768;28;20477;-76
2021/10/06 10:23:26;;;;;;;4.40;1.70;;;16.80;1.00;17.50;100609.00;;;;5110981;28;20485;-79
2021/10/06 10:25:54;;;;;;;6.30;1.80;;;16.80;1.00;17.50;100608.00;;;;5101040;28;20497;-78
2021/10/06 10:28:25;;;;;;;4.67;1.50;;;16.70;1.00;17.10;100573.00;;;;5093628;28;20458;-78
2021/10/06 10:31:02;;;;;;;3.70;1.50;;;16.40;1.00;16.50;100609.00;;;;5094291;28;20946;-77
2021/10/06 10:33:42;;;;;;;3.87;1.40;;;16.20;1.00;16.60;100621.00;;;;5082695;28;20465;-79
2021/10/06 10:36:48;;;;;;;5.90;1.70;;;16.00;1.00;16.40;100640.00;;;;5086454;28;20556;-79
2021/10/06 10:40:00;;;;;;;2.60;1.53;;;15.90;1.00;16.10;100614.00;;;;5107273;28;20458;-78
2021/10/06 10:42:56;;;;;;;3.50;1.60;;;15.60;1.00;15.70;100634.00;;;;5098276;28;20514;-77
2021/10/06 10:45:48;;;;;;;2.80;1.43;;;15.20;1.00;15.40;100600.00;;;;5103364;28;20941;-78
2021/10/06 10:48:21;;;;;;;3.00;1.57;;;14.80;1.00;15.00;100614.00;;;;5095497;28;20989;-77
2021/10/06 10:51:12;;;;;;;4.67;1.63;;;14.50;1.00;14.70;100667.00;;;;5092264;28;20450;-78
2021/10/06 10:54:02;;;;;;;5.10;1.97;;;14.10;1.00;14.70;100683.00;;;;5091260;28;20477;-78
2021/10/06 10:56:54;;;;;;;9.57;2.30;;;14.00;1.00;14.90;100670.00;;;;5084551;28;20475;-78
2021/10/06 10:59:27;;;;;;;7.40;2.50;;;13.90;1.00;14.90;100657.00;;;;5081300;28;20451;-78
2021/10/06 11:01:58;;;;;;;7.97;2.60;;;14.10;1.00;14.80;100677.00;;;;5092967;28;20915;-79
2021/10/06 11:04:29;;;;;;;5.47;1.77;;;14.20;1.00;14.60;100678.00;;;;5091140;28;20438;-78
2021/10/06 11:07:17;;;;;;;4.23;1.90;;;14.00;1.00;14.60;100671.00;;;;5093902;28;20478;-79
2021/10/06 11:09:52;;;;;;;3.93;2.00;;;13.90;1.00;14.50;100703.00;;;;5085423;28;20512;-78